sensor_id;sensor_type;location;lat;lon;timestamp;P1;durP1;ratioP1;P2;durP2;ratioP2
7783;SDS011;19359;51.402;6.778;2023-12-07T00:00:34;599.33;;;86.27;;
7783;SDS011;19359;51.402;6.778;2023-12-07T00:03:01;588.80;;;84.30;;
7783;SDS011;19359;51.402;6.778;2023-12-07T00:05:31;595.30;;;87.30;;
7783;SDS011;19359;51.402;6.778;2023-12-07T00:07:59;599.37;;;87.77;;
7783;SDS011;19359;51.402;6.778;2023-12-07T00:10:26;588.97;;;84.30;;
7783;SDS011;19359;51.402;6.778;2023-12-07T00:12:54;596.63;;;86.77;;
7783;SDS011;19359;51.402;6.778;2023-12-07T00:15:21;590.23;;;83.30;;
7783;SDS011;19359;51.402;6.778;2023-12-07T00:17:48;596.93;;;85.53;;
7783;SDS011;19359;51.402;6.778;2023-12-07T00:20:17;591.73;;;83.53;;
7783;SDS011;19359;51.402;6.778;2023-12-07T00:22:44;595.30;;;85.83;;
7783;SDS011;19359;51.402;6.778;2023-12-07T00:25:11;592.60;;;85.03;;
7783;SDS011;19359;51.402;6.778;2023-12-07T00:27:39;592.93;;;84.80;;
7783;SDS011;19359;51.402;6.778;2023-12-07T00:30:08;593.20;;;85.67;;
7783;SDS011;19359;51.402;6.778;2023-12-07T00:32:35;594.80;;;86.60;;
7783;SDS011;19359;51.402;6.778;2023-12-07T00:35:03;593.53;;;84.63;;
7783;SDS011;19359;51.402;6.778;2023-12-07T00:37:30;599.90;;;89.90;;
7783;SDS011;19359;51.402;6.778;2023-12-07T00:39:57;591.03;;;86.27;;
7783;SDS011;19359;51.402;6.778;2023-12-07T00:42:25;599.37;;;89.67;;
7783;SDS011;19359;51.402;6.778;2023-12-07T00:44:52;600.70;;;90.30;;
7783;SDS011;19359;51.402;6.778;2023-12-07T00:47:21;593.20;;;86.27;;
7783;SDS011;19359;51.402;6.778;2023-12-07T00:49:48;593.17;;;85.77;;
7783;SDS011;19359;51.402;6.778;2023-12-07T00:52:16;601.10;;;89.43;;
7783;SDS011;19359;51.402;6.778;2023-12-07T00:54:43;593.83;;;87.43;;
7783;SDS011;19359;51.402;6.778;2023-12-07T00:57:10;595.30;;;86.57;;
7783;SDS011;19359;51.402;6.778;2023-12-07T00:59:37;596.43;;;87.23;;
7783;SDS011;19359;51.402;6.778;2023-12-07T01:02:04;593.37;;;85.47;;
7783;SDS011;19359;51.402;6.778;2023-12-07T01:04:33;589.33;;;85.17;;
7783;SDS011;19359;51.402;6.778;2023-12-07T01:07:00;596.10;;;86.13;;
7783;SDS011;19359;51.402;6.778;2023-12-07T01:09:27;589.60;;;85.80;;
7783;SDS011;19359;51.402;6.778;2023-12-07T01:11:54;594.03;;;86.77;;
7783;SDS011;19359;51.402;6.778;2023-12-07T01:14:23;595.80;;;86.30;;
7783;SDS011;19359;51.402;6.778;2023-12-07T01:16:50;595.83;;;86.90;;
7783;SDS011;19359;51.402;6.778;2023-12-07T01:19:17;602.90;;;88.83;;
7783;SDS011;19359;51.402;6.778;2023-12-07T01:21:46;600.13;;;85.77;;
7783;SDS011;19359;51.402;6.778;2023-12-07T01:24:13;598.03;;;87.23;;
7783;SDS011;19359;51.402;6.778;2023-12-07T01:26:40;591.97;;;85.97;;
7783;SDS011;19359;51.402;6.778;2023-12-07T01:29:07;596.33;;;86.77;;
7783;SDS011;19359;51.402;6.778;2023-12-07T01:31:34;594.70;;;87.83;;
7783;SDS011;19359;51.402;6.778;2023-12-07T01:34:01;598.23;;;89.17;;
7783;SDS011;19359;51.402;6.778;2023-12-07T01:36:28;599.53;;;89.73;;
7783;SDS011;19359;51.402;6.778;2023-12-07T01:38:57;593.80;;;87.47;;
7783;SDS011;19359;51.402;6.778;2023-12-07T01:41:25;592.50;;;86.60;;
7783;SDS011;19359;51.402;6.778;2023-12-07T01:43:52;595.70;;;87.70;;
7783;SDS011;19359;51.402;6.778;2023-12-07T01:46:19;600.87;;;91.83;;
7783;SDS011;19359;51.402;6.778;2023-12-07T01:48:46;603.20;;;87.83;;
7783;SDS011;19359;51.402;6.778;2023-12-07T01:51:14;598.60;;;89.10;;
7783;SDS011;19359;51.402;6.778;2023-12-07T01:53:41;603.60;;;89.87;;
7783;SDS011;19359;51.402;6.778;2023-12-07T01:56:10;600.60;;;89.20;;
7783;SDS011;19359;51.402;6.778;2023-12-07T01:58:37;599.70;;;87.57;;
7783;SDS011;19359;51.402;6.778;2023-12-07T02:01:04;599.33;;;88.97;;
7783;SDS011;19359;51.402;6.778;2023-12-07T02:03:32;596.90;;;88.40;;
7783;SDS011;19359;51.402;6.778;2023-12-07T02:05:59;596.67;;;88.30;;
7783;SDS011;19359;51.402;6.778;2023-12-07T02:08:27;597.27;;;90.03;;
7783;SDS011;19359;51.402;6.778;2023-12-07T02:10:54;594.60;;;88.70;;
7783;SDS011;19359;51.402;6.778;2023-12-07T02:13:23;596.73;;;88.37;;
7783;SDS011;19359;51.402;6.778;2023-12-07T02:15:50;599.43;;;89.47;;
7783;SDS011;19359;51.402;6.778;2023-12-07T02:18:19;597.93;;;89.47;;
7783;SDS011;19359;51.402;6.778;2023-12-07T02:20:52;597.40;;;89.47;;
7783;SDS011;19359;51.402;6.778;2023-12-07T02:23:25;597.10;;;88.97;;
7783;SDS011;19359;51.402;6.778;2023-12-07T02:25:54;597.43;;;87.70;;
7783;SDS011;19359;51.402;6.778;2023-12-07T02:28:30;595.60;;;86.17;;
7783;SDS011;19359;51.402;6.778;2023-12-07T02:30:56;596.40;;;88.27;;
7783;SDS011;19359;51.402;6.778;2023-12-07T02:33:24;595.50;;;86.93;;
7783;SDS011;19359;51.402;6.778;2023-12-07T02:35:51;594.93;;;87.33;;
7783;SDS011;19359;51.402;6.778;2023-12-07T02:38:18;596.27;;;86.27;;
7783;SDS011;19359;51.402;6.778;2023-12-07T02:40:45;594.80;;;88.37;;
7783;SDS011;19359;51.402;6.778;2023-12-07T02:43:13;598.40;;;88.27;;
7783;SDS011;19359;51.402;6.778;2023-12-07T02:45:42;594.30;;;87.00;;
7783;SDS011;19359;51.402;6.778;2023-12-07T02:48:09;596.53;;;87.53;;
7783;SDS011;19359;51.402;6.778;2023-12-07T02:50:36;590.83;;;87.00;;
7783;SDS011;19359;51.402;6.778;2023-12-07T02:53:03;595.87;;;86.90;;
7783;SDS011;19359;51.402;6.778;2023-12-07T02:55:30;598.73;;;89.43;;
7783;SDS011;19359;51.402;6.778;2023-12-07T02:57:57;599.37;;;88.30;;
7783;SDS011;19359;51.402;6.778;2023-12-07T03:00:24;600.53;;;87.17;;
7783;SDS011;19359;51.402;6.778;2023-12-07T03:02:53;593.57;;;88.70;;
7783;SDS011;19359;51.402;6.778;2023-12-07T03:05:20;601.27;;;89.77;;
7783;SDS011;19359;51.402;6.778;2023-12-07T03:07:48;600.10;;;89.40;;
7783;SDS011;19359;51.402;6.778;2023-12-07T03:10:15;600.07;;;88.77;;
7783;SDS011;19359;51.402;6.778;2023-12-07T03:12:42;591.67;;;88.57;;
7783;SDS011;19359;51.402;6.778;2023-12-07T03:15:09;598.03;;;89.60;;
7783;SDS011;19359;51.402;6.778;2023-12-07T03:17:38;599.77;;;92.77;;
7783;SDS011;19359;51.402;6.778;2023-12-07T03:20:07;595.67;;;89.03;;
7783;SDS011;19359;51.402;6.778;2023-12-07T03:22:35;596.10;;;89.60;;
7783;SDS011;19359;51.402;6.778;2023-12-07T03:25:02;598.90;;;90.67;;
7783;SDS011;19359;51.402;6.778;2023-12-07T03:27:28;591.03;;;89.03;;
7783;SDS011;19359;51.402;6.778;2023-12-07T03:29:56;594.23;;;87.90;;
7783;SDS011;19359;51.402;6.778;2023-12-07T03:32:23;593.60;;;89.60;;
7783;SDS011;19359;51.402;6.778;2023-12-07T03:34:50;596.70;;;88.63;;
7783;SDS011;19359;51.402;6.778;2023-12-07T03:37:18;602.67;;;90.80;;
7783;SDS011;19359;51.402;6.778;2023-12-07T03:39:45;594.00;;;88.53;;
7783;SDS011;19359;51.402;6.778;2023-12-07T03:42:13;596.23;;;88.97;;
7783;SDS011;19359;51.402;6.778;2023-12-07T03:44:40;595.13;;;88.73;;
7783;SDS011;19359;51.402;6.778;2023-12-07T03:47:08;597.77;;;87.27;;
7783;SDS011;19359;51.402;6.778;2023-12-07T03:49:35;593.03;;;88.50;;
7783;SDS011;19359;51.402;6.778;2023-12-07T03:52:03;600.50;;;92.17;;
7783;SDS011;19359;51.402;6.778;2023-12-07T03:54:32;593.43;;;90.63;;
7783;SDS011;19359;51.402;6.778;2023-12-07T03:57:00;597.17;;;90.40;;
7783;SDS011;19359;51.402;6.778;2023-12-07T03:59:27;596.50;;;89.43;;
7783;SDS011;19359;51.402;6.778;2023-12-07T04:01:54;603.33;;;91.20;;
7783;SDS011;19359;51.402;6.778;2023-12-07T04:04:21;605.83;;;93.87;;
7783;SDS011;19359;51.402;6.778;2023-12-07T04:06:48;599.03;;;90.77;;
7783;SDS011;19359;51.402;6.778;2023-12-07T04:09:16;599.27;;;90.37;;
7783;SDS011;19359;51.402;6.778;2023-12-07T04:11:44;613.63;;;96.77;;
7783;SDS011;19359;51.402;6.778;2023-12-07T04:14:11;472.87;;;75.63;;
7783;SDS011;19359;51.402;6.778;2023-12-07T04:16:39;458.47;;;70.17;;
7783;SDS011;19359;51.402;6.778;2023-12-07T04:19:06;461.13;;;69.00;;
7783;SDS011;19359;51.402;6.778;2023-12-07T04:21:33;604.73;;;93.47;;
7783;SDS011;19359;51.402;6.778;2023-12-07T04:24:00;459.10;;;68.03;;
7783;SDS011;19359;51.402;6.778;2023-12-07T04:26:27;597.47;;;90.77;;
7783;SDS011;19359;51.402;6.778;2023-12-07T04:28:56;599.17;;;88.73;;
7783;SDS011;19359;51.402;6.778;2023-12-07T04:31:23;7.90;;;2.03;;
7783;SDS011;19359;51.402;6.778;2023-12-07T04:33:50;8.20;;;2.13;;
7783;SDS011;19359;51.402;6.778;2023-12-07T04:36:17;629.13;;;106.27;;
7783;SDS011;19359;51.402;6.778;2023-12-07T04:38:44;8.37;;;3.23;;
7783;SDS011;19359;51.402;6.778;2023-12-07T04:41:11;8.33;;;2.20;;
7783;SDS011;19359;51.402;6.778;2023-12-07T04:43:38;10.20;;;2.58;;
7783;SDS011;19359;51.402;6.778;2023-12-07T04:46:06;10.30;;;2.60;;
7783;SDS011;19359;51.402;6.778;2023-12-07T04:48:33;7.83;;;2.03;;
7783;SDS011;19359;51.402;6.778;2023-12-07T04:51:00;7.60;;;1.70;;
7783;SDS011;19359;51.402;6.778;2023-12-07T04:53:28;325.53;;;50.57;;
7783;SDS011;19359;51.402;6.778;2023-12-07T04:55:55;603.17;;;94.50;;
7783;SDS011;19359;51.402;6.778;2023-12-07T04:58:22;344.63;;;59.37;;
7783;SDS011;19359;51.402;6.778;2023-12-07T05:00:49;7.40;;;1.80;;
7783;SDS011;19359;51.402;6.778;2023-12-07T05:03:18;7.43;;;1.90;;
7783;SDS011;19359;51.402;6.778;2023-12-07T05:05:45;7.53;;;2.10;;
7783;SDS011;19359;51.402;6.778;2023-12-07T05:08:13;7.90;;;2.57;;
7783;SDS011;19359;51.402;6.778;2023-12-07T05:10:40;7.57;;;1.90;;
7783;SDS011;19359;51.402;6.778;2023-12-07T05:13:08;7.77;;;2.60;;
7783;SDS011;19359;51.402;6.778;2023-12-07T05:15:35;7.50;;;1.90;;
7783;SDS011;19359;51.402;6.778;2023-12-07T05:18:02;11.93;;;9.77;;
7783;SDS011;19359;51.402;6.778;2023-12-07T05:20:31;9.27;;;2.47;;
7783;SDS011;19359;51.402;6.778;2023-12-07T05:22:59;9.13;;;2.40;;
7783;SDS011;19359;51.402;6.778;2023-12-07T05:25:26;9.13;;;2.50;;
7783;SDS011;19359;51.402;6.778;2023-12-07T05:27:53;9.33;;;2.50;;
7783;SDS011;19359;51.402;6.778;2023-12-07T05:30:20;9.03;;;2.40;;
7783;SDS011;19359;51.402;6.778;2023-12-07T05:32:47;9.23;;;2.33;;
7783;SDS011;19359;51.402;6.778;2023-12-07T05:35:15;9.10;;;2.27;;
7783;SDS011;19359;51.402;6.778;2023-12-07T05:37:44;10.17;;;4.60;;
7783;SDS011;19359;51.402;6.778;2023-12-07T05:40:11;9.13;;;2.63;;
7783;SDS011;19359;51.402;6.778;2023-12-07T05:42:38;9.53;;;3.03;;
7783;SDS011;19359;51.402;6.778;2023-12-07T05:45:06;9.00;;;2.33;;
7783;SDS011;19359;51.402;6.778;2023-12-07T05:47:35;9.43;;;3.17;;
7783;SDS011;19359;51.402;6.778;2023-12-07T05:50:02;8.90;;;2.50;;
7783;SDS011;19359;51.402;6.778;2023-12-07T05:52:29;9.23;;;3.07;;
7783;SDS011;19359;51.402;6.778;2023-12-07T05:54:58;8.83;;;2.37;;
7783;SDS011;19359;51.402;6.778;2023-12-07T05:57:25;8.90;;;2.43;;
7783;SDS011;19359;51.402;6.778;2023-12-07T05:59:53;8.90;;;2.77;;
7783;SDS011;19359;51.402;6.778;2023-12-07T06:02:20;7.60;;;2.00;;
7783;SDS011;19359;51.402;6.778;2023-12-07T06:04:47;7.83;;;2.30;;
7783;SDS011;19359;51.402;6.778;2023-12-07T06:07:14;603.93;;;100.43;;
7783;SDS011;19359;51.402;6.778;2023-12-07T06:09:42;599.20;;;97.70;;
7783;SDS011;19359;51.402;6.778;2023-12-07T06:12:10;584.53;;;89.30;;
7783;SDS011;19359;51.402;6.778;2023-12-07T06:14:37;582.73;;;90.30;;
7783;SDS011;19359;51.402;6.778;2023-12-07T06:17:04;577.83;;;90.53;;
7783;SDS011;19359;51.402;6.778;2023-12-07T06:19:33;584.60;;;91.47;;
7783;SDS011;19359;51.402;6.778;2023-12-07T06:22:00;582.37;;;92.47;;
7783;SDS011;19359;51.402;6.778;2023-12-07T06:24:27;585.23;;;90.60;;
7783;SDS011;19359;51.402;6.778;2023-12-07T06:26:54;453.60;;;73.03;;
7783;SDS011;19359;51.402;6.778;2023-12-07T06:29:24;580.83;;;91.17;;
7783;SDS011;19359;51.402;6.778;2023-12-07T06:31:51;576.77;;;89.67;;
7783;SDS011;19359;51.402;6.778;2023-12-07T06:34:18;591.63;;;96.10;;
7783;SDS011;19359;51.402;6.778;2023-12-07T06:36:45;581.00;;;90.27;;
7783;SDS011;19359;51.402;6.778;2023-12-07T06:39:12;584.90;;;95.10;;
7783;SDS011;19359;51.402;6.778;2023-12-07T06:41:39;603.27;;;100.00;;
7783;SDS011;19359;51.402;6.778;2023-12-07T06:44:07;594.20;;;100.63;;
7783;SDS011;19359;51.402;6.778;2023-12-07T06:46:35;579.83;;;89.47;;
7783;SDS011;19359;51.402;6.778;2023-12-07T06:49:03;587.23;;;91.07;;
7783;SDS011;19359;51.402;6.778;2023-12-07T06:51:30;449.53;;;73.67;;
7783;SDS011;19359;51.402;6.778;2023-12-07T06:53:57;449.63;;;71.30;;
7783;SDS011;19359;51.402;6.778;2023-12-07T06:56:24;586.97;;;95.87;;
7783;SDS011;19359;51.402;6.778;2023-12-07T06:58:51;448.17;;;73.57;;
7783;SDS011;19359;51.402;6.778;2023-12-07T07:01:18;450.30;;;70.63;;
7783;SDS011;19359;51.402;6.778;2023-12-07T07:03:47;323.23;;;52.00;;
7783;SDS011;19359;51.402;6.778;2023-12-07T07:06:14;325.63;;;52.27;;
7783;SDS011;19359;51.402;6.778;2023-12-07T07:08:41;585.63;;;87.93;;
7783;SDS011;19359;51.402;6.778;2023-12-07T07:11:12;591.50;;;96.87;;
7783;SDS011;19359;51.402;6.778;2023-12-07T07:13:40;452.90;;;74.13;;
7783;SDS011;19359;51.402;6.778;2023-12-07T07:16:07;590.43;;;93.27;;
7783;SDS011;19359;51.402;6.778;2023-12-07T07:18:35;582.17;;;89.80;;
7783;SDS011;19359;51.402;6.778;2023-12-07T07:21:03;323.77;;;53.00;;
7783;SDS011;19359;51.402;6.778;2023-12-07T07:23:30;582.60;;;90.13;;
7783;SDS011;19359;51.402;6.778;2023-12-07T07:25:57;582.30;;;87.27;;
7783;SDS011;19359;51.402;6.778;2023-12-07T07:28:24;585.50;;;89.93;;
7783;SDS011;19359;51.402;6.778;2023-12-07T07:30:52;589.13;;;92.43;;
7783;SDS011;19359;51.402;6.778;2023-12-07T07:33:19;587.37;;;90.63;;
7783;SDS011;19359;51.402;6.778;2023-12-07T07:35:46;580.83;;;90.70;;
7783;SDS011;19359;51.402;6.778;2023-12-07T07:38:15;586.50;;;91.00;;
7783;SDS011;19359;51.402;6.778;2023-12-07T07:40:42;579.40;;;88.57;;
7783;SDS011;19359;51.402;6.778;2023-12-07T07:43:10;584.30;;;87.97;;
7783;SDS011;19359;51.402;6.778;2023-12-07T07:45:37;588.97;;;88.40;;
7783;SDS011;19359;51.402;6.778;2023-12-07T07:48:04;581.63;;;88.70;;
7783;SDS011;19359;51.402;6.778;2023-12-07T07:50:32;578.27;;;87.27;;
7783;SDS011;19359;51.402;6.778;2023-12-07T07:53:01;576.30;;;87.00;;
7783;SDS011;19359;51.402;6.778;2023-12-07T07:55:30;582.33;;;91.10;;
7783;SDS011;19359;51.402;6.778;2023-12-07T07:57:57;582.93;;;88.00;;
7783;SDS011;19359;51.402;6.778;2023-12-07T08:00:24;581.67;;;86.43;;
7783;SDS011;19359;51.402;6.778;2023-12-07T08:02:53;578.20;;;88.67;;
7783;SDS011;19359;51.402;6.778;2023-12-07T08:05:20;581.20;;;87.97;;
7783;SDS011;19359;51.402;6.778;2023-12-07T08:07:49;574.37;;;85.83;;
7783;SDS011;19359;51.402;6.778;2023-12-07T08:10:16;580.70;;;89.40;;
7783;SDS011;19359;51.402;6.778;2023-12-07T08:12:45;582.03;;;91.17;;
7783;SDS011;19359;51.402;6.778;2023-12-07T08:15:12;577.23;;;86.20;;
7783;SDS011;19359;51.402;6.778;2023-12-07T08:17:46;584.37;;;90.87;;
7783;SDS011;19359;51.402;6.778;2023-12-07T08:20:14;575.50;;;85.43;;
7783;SDS011;19359;51.402;6.778;2023-12-07T08:22:41;578.13;;;86.80;;
7783;SDS011;19359;51.402;6.778;2023-12-07T08:25:09;582.83;;;90.07;;
7783;SDS011;19359;51.402;6.778;2023-12-07T08:27:37;581.93;;;87.93;;
7783;SDS011;19359;51.402;6.778;2023-12-07T08:30:07;576.00;;;86.17;;
7783;SDS011;19359;51.402;6.778;2023-12-07T08:32:35;590.50;;;93.33;;
7783;SDS011;19359;51.402;6.778;2023-12-07T08:35:02;579.93;;;86.50;;
7783;SDS011;19359;51.402;6.778;2023-12-07T08:37:30;580.83;;;89.57;;
7783;SDS011;19359;51.402;6.778;2023-12-07T08:39:57;580.63;;;88.43;;
7783;SDS011;19359;51.402;6.778;2023-12-07T08:42:24;577.70;;;85.57;;
7783;SDS011;19359;51.402;6.778;2023-12-07T08:44:53;576.57;;;86.30;;
7783;SDS011;19359;51.402;6.778;2023-12-07T08:47:21;581.63;;;89.33;;
7783;SDS011;19359;51.402;6.778;2023-12-07T08:49:48;584.63;;;90.20;;
7783;SDS011;19359;51.402;6.778;2023-12-07T08:52:16;577.27;;;85.93;;
7783;SDS011;19359;51.402;6.778;2023-12-07T08:54:43;577.97;;;86.33;;
7783;SDS011;19359;51.402;6.778;2023-12-07T08:57:11;576.53;;;86.10;;
7783;SDS011;19359;51.402;6.778;2023-12-07T08:59:38;577.07;;;85.00;;
7783;SDS011;19359;51.402;6.778;2023-12-07T09:02:06;576.70;;;86.67;;
7783;SDS011;19359;51.402;6.778;2023-12-07T09:04:34;591.70;;;87.27;;
7783;SDS011;19359;51.402;6.778;2023-12-07T09:07:01;580.30;;;87.53;;
7783;SDS011;19359;51.402;6.778;2023-12-07T09:09:28;585.13;;;89.13;;
7783;SDS011;19359;51.402;6.778;2023-12-07T09:11:56;582.10;;;90.37;;
7783;SDS011;19359;51.402;6.778;2023-12-07T09:14:22;583.07;;;87.40;;
7783;SDS011;19359;51.402;6.778;2023-12-07T09:16:51;585.97;;;86.73;;
7783;SDS011;19359;51.402;6.778;2023-12-07T09:19:19;580.07;;;88.73;;
7783;SDS011;19359;51.402;6.778;2023-12-07T09:21:48;580.03;;;87.77;;
7783;SDS011;19359;51.402;6.778;2023-12-07T09:24:15;584.17;;;88.67;;
7783;SDS011;19359;51.402;6.778;2023-12-07T09:26:42;583.10;;;86.60;;
7783;SDS011;19359;51.402;6.778;2023-12-07T09:29:11;583.17;;;88.70;;
7783;SDS011;19359;51.402;6.778;2023-12-07T09:31:38;604.87;;;90.80;;
7783;SDS011;19359;51.402;6.778;2023-12-07T09:34:05;604.13;;;90.07;;
7783;SDS011;19359;51.402;6.778;2023-12-07T09:36:33;605.50;;;91.77;;
7783;SDS011;19359;51.402;6.778;2023-12-07T09:39:02;601.87;;;89.97;;
7783;SDS011;19359;51.402;6.778;2023-12-07T09:41:29;589.63;;;90.83;;
7783;SDS011;19359;51.402;6.778;2023-12-07T09:43:56;599.47;;;94.07;;
7783;SDS011;19359;51.402;6.778;2023-12-07T09:46:25;584.40;;;87.50;;
7783;SDS011;19359;51.402;6.778;2023-12-07T09:48:52;581.17;;;86.30;;
7783;SDS011;19359;51.402;6.778;2023-12-07T09:51:19;585.33;;;89.53;;
7783;SDS011;19359;51.402;6.778;2023-12-07T09:53:47;591.37;;;89.07;;
7783;SDS011;19359;51.402;6.778;2023-12-07T09:56:19;580.93;;;86.63;;
7783;SDS011;19359;51.402;6.778;2023-12-07T09:58:46;582.40;;;86.33;;
7783;SDS011;19359;51.402;6.778;2023-12-07T10:01:13;583.90;;;88.37;;
7783;SDS011;19359;51.402;6.778;2023-12-07T10:03:40;582.83;;;88.33;;
7783;SDS011;19359;51.402;6.778;2023-12-07T10:06:08;579.03;;;86.53;;
7783;SDS011;19359;51.402;6.778;2023-12-07T10:08:34;580.30;;;86.63;;
7783;SDS011;19359;51.402;6.778;2023-12-07T10:11:03;587.13;;;89.03;;
7783;SDS011;19359;51.402;6.778;2023-12-07T10:13:32;587.73;;;92.30;;
7783;SDS011;19359;51.402;6.778;2023-12-07T10:16:07;584.67;;;87.10;;
7783;SDS011;19359;51.402;6.778;2023-12-07T10:18:35;592.20;;;91.03;;
7783;SDS011;19359;51.402;6.778;2023-12-07T10:21:02;610.80;;;92.87;;
7783;SDS011;19359;51.402;6.778;2023-12-07T10:23:29;612.60;;;94.30;;
7783;SDS011;19359;51.402;6.778;2023-12-07T10:26:00;584.80;;;87.53;;
7783;SDS011;19359;51.402;6.778;2023-12-07T10:28:27;587.00;;;89.17;;
7783;SDS011;19359;51.402;6.778;2023-12-07T10:30:56;584.03;;;85.17;;
7783;SDS011;19359;51.402;6.778;2023-12-07T10:33:25;586.23;;;88.30;;
7783;SDS011;19359;51.402;6.778;2023-12-07T10:35:52;588.63;;;89.73;;
7783;SDS011;19359;51.402;6.778;2023-12-07T10:38:19;589.97;;;89.03;;
7783;SDS011;19359;51.402;6.778;2023-12-07T10:40:46;593.53;;;89.87;;
7783;SDS011;19359;51.402;6.778;2023-12-07T10:43:15;604.73;;;94.47;;
7783;SDS011;19359;51.402;6.778;2023-12-07T10:45:42;615.90;;;92.60;;
7783;SDS011;19359;51.402;6.778;2023-12-07T10:48:11;621.53;;;97.67;;
7783;SDS011;19359;51.402;6.778;2023-12-07T10:50:40;622.57;;;95.20;;
7783;SDS011;19359;51.402;6.778;2023-12-07T10:53:09;629.37;;;95.97;;
7783;SDS011;19359;51.402;6.778;2023-12-07T10:55:42;623.20;;;95.80;;
7783;SDS011;19359;51.402;6.778;2023-12-07T10:58:14;630.47;;;98.50;;
7783;SDS011;19359;51.402;6.778;2023-12-07T11:00:43;627.30;;;98.10;;
7783;SDS011;19359;51.402;6.778;2023-12-07T11:03:14;623.43;;;96.87;;
7783;SDS011;19359;51.402;6.778;2023-12-07T11:05:42;628.30;;;95.57;;
7783;SDS011;19359;51.402;6.778;2023-12-07T11:08:13;623.53;;;96.50;;
7783;SDS011;19359;51.402;6.778;2023-12-07T11:10:48;629.70;;;98.63;;
7783;SDS011;19359;51.402;6.778;2023-12-07T11:13:24;620.30;;;93.27;;
7783;SDS011;19359;51.402;6.778;2023-12-07T11:15:55;627.00;;;96.67;;
7783;SDS011;19359;51.402;6.778;2023-12-07T11:18:25;627.83;;;98.23;;
7783;SDS011;19359;51.402;6.778;2023-12-07T11:20:52;628.47;;;97.10;;
7783;SDS011;19359;51.402;6.778;2023-12-07T11:23:19;631.77;;;97.17;;
7783;SDS011;19359;51.402;6.778;2023-12-07T11:25:47;633.90;;;95.77;;
7783;SDS011;19359;51.402;6.778;2023-12-07T11:28:15;625.97;;;94.57;;
7783;SDS011;19359;51.402;6.778;2023-12-07T11:30:43;598.50;;;88.73;;
7783;SDS011;19359;51.402;6.778;2023-12-07T11:33:12;604.87;;;91.40;;
7783;SDS011;19359;51.402;6.778;2023-12-07T11:38:33;604.87;;;91.17;;
7783;SDS011;19359;51.402;6.778;2023-12-07T11:41:01;608.07;;;92.67;;
7783;SDS011;19359;51.402;6.778;2023-12-07T11:43:41;609.23;;;91.67;;
7783;SDS011;19359;51.402;6.778;2023-12-07T11:46:20;607.00;;;90.80;;
7783;SDS011;19359;51.402;6.778;2023-12-07T11:48:49;604.07;;;89.83;;
7783;SDS011;19359;51.402;6.778;2023-12-07T11:51:18;609.47;;;91.67;;
7783;SDS011;19359;51.402;6.778;2023-12-07T11:53:44;606.57;;;93.27;;
7783;SDS011;19359;51.402;6.778;2023-12-07T11:56:13;609.73;;;95.00;;
7783;SDS011;19359;51.402;6.778;2023-12-07T11:58:45;601.40;;;90.37;;
7783;SDS011;19359;51.402;6.778;2023-12-07T12:01:12;605.23;;;95.37;;
7783;SDS011;19359;51.402;6.778;2023-12-07T12:03:39;602.83;;;92.40;;
7783;SDS011;19359;51.402;6.778;2023-12-07T12:06:07;597.23;;;88.80;;
7783;SDS011;19359;51.402;6.778;2023-12-07T12:08:37;604.10;;;89.80;;
7783;SDS011;19359;51.402;6.778;2023-12-07T12:11:05;599.73;;;88.63;;
7783;SDS011;19359;51.402;6.778;2023-12-07T12:13:34;608.83;;;91.17;;
7783;SDS011;19359;51.402;6.778;2023-12-07T12:16:01;601.07;;;90.63;;
7783;SDS011;19359;51.402;6.778;2023-12-07T12:18:29;603.73;;;90.53;;
7783;SDS011;19359;51.402;6.778;2023-12-07T12:20:57;603.77;;;91.20;;
7783;SDS011;19359;51.402;6.778;2023-12-07T12:23:25;604.53;;;90.97;;
7783;SDS011;19359;51.402;6.778;2023-12-07T12:25:55;601.37;;;91.17;;
7783;SDS011;19359;51.402;6.778;2023-12-07T12:28:23;601.77;;;90.57;;
7783;SDS011;19359;51.402;6.778;2023-12-07T12:30:50;605.77;;;93.33;;
7783;SDS011;19359;51.402;6.778;2023-12-07T12:33:17;608.03;;;93.20;;
7783;SDS011;19359;51.402;6.778;2023-12-07T12:35:44;602.17;;;90.07;;
7783;SDS011;19359;51.402;6.778;2023-12-07T12:38:12;598.50;;;90.93;;
7783;SDS011;19359;51.402;6.778;2023-12-07T12:40:39;604.43;;;93.07;;
7783;SDS011;19359;51.402;6.778;2023-12-07T12:43:08;604.97;;;94.10;;
7783;SDS011;19359;51.402;6.778;2023-12-07T12:45:36;606.70;;;94.27;;
7783;SDS011;19359;51.402;6.778;2023-12-07T12:48:03;609.30;;;94.90;;
7783;SDS011;19359;51.402;6.778;2023-12-07T12:50:35;600.40;;;89.47;;
7783;SDS011;19359;51.402;6.778;2023-12-07T12:53:03;605.47;;;91.60;;
7783;SDS011;19359;51.402;6.778;2023-12-07T12:55:32;605.70;;;93.23;;
7783;SDS011;19359;51.402;6.778;2023-12-07T12:57:59;607.37;;;93.83;;
7783;SDS011;19359;51.402;6.778;2023-12-07T13:00:30;604.80;;;93.17;;
7783;SDS011;19359;51.402;6.778;2023-12-07T13:02:59;610.80;;;95.37;;
7783;SDS011;19359;51.402;6.778;2023-12-07T13:05:26;608.37;;;91.60;;
7783;SDS011;19359;51.402;6.778;2023-12-07T13:07:53;604.37;;;92.50;;
7783;SDS011;19359;51.402;6.778;2023-12-07T13:10:20;602.73;;;91.10;;
7783;SDS011;19359;51.402;6.778;2023-12-07T13:12:47;602.20;;;92.40;;
7783;SDS011;19359;51.402;6.778;2023-12-07T13:15:14;603.63;;;90.83;;
7783;SDS011;19359;51.402;6.778;2023-12-07T13:17:43;602.17;;;91.63;;
7783;SDS011;19359;51.402;6.778;2023-12-07T13:20:10;604.37;;;92.30;;
7783;SDS011;19359;51.402;6.778;2023-12-07T13:22:38;610.70;;;99.37;;
7783;SDS011;19359;51.402;6.778;2023-12-07T13:25:06;606.97;;;92.37;;
7783;SDS011;19359;51.402;6.778;2023-12-07T13:27:33;606.13;;;95.03;;
7783;SDS011;19359;51.402;6.778;2023-12-07T13:30:00;607.57;;;96.87;;
7783;SDS011;19359;51.402;6.778;2023-12-07T13:32:30;625.83;;;94.73;;
7783;SDS011;19359;51.402;6.778;2023-12-07T13:34:58;624.53;;;94.17;;
7783;SDS011;19359;51.402;6.778;2023-12-07T13:37:25;629.37;;;96.60;;
7783;SDS011;19359;51.402;6.778;2023-12-07T13:39:53;632.23;;;97.83;;
7783;SDS011;19359;51.402;6.778;2023-12-07T13:42:23;635.13;;;97.13;;
7783;SDS011;19359;51.402;6.778;2023-12-07T13:44:51;626.40;;;95.87;;
7783;SDS011;19359;51.402;6.778;2023-12-07T13:47:19;630.83;;;95.70;;
7783;SDS011;19359;51.402;6.778;2023-12-07T13:49:48;642.00;;;99.33;;
7783;SDS011;19359;51.402;6.778;2023-12-07T13:52:16;630.60;;;99.03;;
7783;SDS011;19359;51.402;6.778;2023-12-07T13:54:44;637.87;;;103.07;;
7783;SDS011;19359;51.402;6.778;2023-12-07T13:57:11;635.77;;;101.60;;
7783;SDS011;19359;51.402;6.778;2023-12-07T13:59:38;634.47;;;100.33;;
7783;SDS011;19359;51.402;6.778;2023-12-07T14:02:05;627.50;;;96.40;;
7783;SDS011;19359;51.402;6.778;2023-12-07T14:04:33;633.33;;;100.03;;
7783;SDS011;19359;51.402;6.778;2023-12-07T14:07:07;633.97;;;97.47;;
7783;SDS011;19359;51.402;6.778;2023-12-07T14:09:39;609.50;;;92.93;;
7783;SDS011;19359;51.402;6.778;2023-12-07T14:12:07;612.97;;;95.47;;
7783;SDS011;19359;51.402;6.778;2023-12-07T14:14:36;629.27;;;96.47;;
7783;SDS011;19359;51.402;6.778;2023-12-07T14:17:06;625.13;;;96.87;;
7783;SDS011;19359;51.402;6.778;2023-12-07T14:19:33;605.33;;;91.50;;
7783;SDS011;19359;51.402;6.778;2023-12-07T14:22:01;608.90;;;93.73;;
7783;SDS011;19359;51.402;6.778;2023-12-07T14:24:28;606.00;;;91.70;;
7783;SDS011;19359;51.402;6.778;2023-12-07T14:26:57;605.50;;;93.00;;
7783;SDS011;19359;51.402;6.778;2023-12-07T14:29:25;607.07;;;94.67;;
7783;SDS011;19359;51.402;6.778;2023-12-07T14:31:52;605.40;;;94.53;;